Terminal Aerodrome Forecast
Issued by NWS

Home | Current Version | Previous Version | Text Only | Print | Product List | Glossary Off
Versions: 1 2 3 4 5 6 7 8 9 10 11 12 13 14 15 16 17 18 19

000
FTUS42 KMHX 261146
TAFOAJ
TAF
KOAJ 261146Z 2612/2712 00000KT 3SM BR VCSH SCT004 OVC045
     FM261400 03005KT P6SM VCSH SCT040
     FM261900 07005KT P6SM VCTS SCT025 BKN040CB
     FM270600 00000KT 3SM BR SCT005
      AMD LTD TO CLD VIS AND WIND=

USA.gov is the U.S. government's official web portal to all federal, state and local government web resources and services.